createdAt,value
2022-11-05T07:43:39.267Z,99505.91
2022-11-05T07:48:42.273Z,99504.72
2022-11-05T07:53:45.612Z,99509.53
2022-11-05T08:05:51.185Z,99518.41
2022-11-05T08:10:53.751Z,99517.31
2022-11-05T08:15:57.511Z,99529.47
2022-11-05T08:21:03.424Z,99530.00
2022-11-05T08:26:06.525Z,99520.84
2022-11-05T08:31:09.078Z,99522.38
2022-11-05T08:36:13.245Z,99524.50
2022-11-05T08:41:15.838Z,99520.09
2022-11-05T08:46:18.427Z,99527.38
2022-11-05T08:51:22.406Z,99536.56
2022-11-05T08:56:24.981Z,99543.88
2022-11-05T09:01:27.764Z,99552.78
2022-11-05T09:06:31.846Z,99549.25
2022-11-05T09:12:05.335Z,99544.66
2022-11-05T09:16:57.382Z,99541.06
2022-11-05T09:22:01.427Z,99549.91
2022-11-05T09:27:04.148Z,99546.47
2022-11-05T09:32:07.083Z,99564.13
2022-11-05T09:37:11.045Z,99564.91
2022-11-05T09:42:17.516Z,99564.16
2022-11-05T09:47:21.786Z,99562.38
2022-11-05T09:52:27.400Z,99564.03
2022-11-05T09:57:33.838Z,99558.25
2022-11-05T10:02:38.903Z,99572.91
2022-11-05T10:07:45.028Z,99562.88
2022-11-05T10:12:50.976Z,99568.84
2022-11-05T10:17:57.469Z,99568.84
2022-11-05T10:23:02.909Z,99579.75
2022-11-05T10:28:07.852Z,99576.81
2022-11-05T10:33:13.807Z,99576.16
2022-11-05T10:38:18.188Z,99580.94
2022-11-05T10:43:25.473Z,99583.34
2022-11-05T10:48:47.295Z,99588.06
2022-11-05T10:54:00.384Z,99596.19
2022-11-05T10:59:11.843Z,99594.06
2022-11-05T11:04:18.356Z,99596.09
2022-11-05T11:09:25.903Z,99589.44
2022-11-05T11:14:28.662Z,99593.78
2022-11-05T11:19:32.778Z,99588.69
2022-11-05T11:24:40.650Z,99577.00
2022-11-05T11:29:49.337Z,99577.19
2022-11-05T11:34:54.135Z,99579.84
2022-11-05T11:40:01.051Z,99570.19
2022-11-05T11:45:07.609Z,99576.81
2022-11-05T11:50:36.728Z,99580.88
2022-11-05T11:55:39.335Z,99566.19
2022-11-05T12:00:46.204Z,99573.03
2022-11-05T12:05:53.244Z,99567.22
2022-11-05T12:11:00.583Z,99563.06
2022-11-05T12:16:08.604Z,99565.91
2022-11-05T12:21:29.448Z,99558.44
2022-11-05T12:26:48.745Z,99555.69
2022-11-05T12:32:00.724Z,99555.69
2022-11-05T12:37:14.801Z,99550.53
2022-11-05T12:42:26.575Z,99550.91
2022-11-05T12:47:42.122Z,99552.75
2022-11-05T12:53:14.546Z,99546.75
2022-11-05T12:58:22.522Z,99551.28
2022-11-05T13:03:32.014Z,99539.75
2022-11-05T13:08:39.770Z,99536.88
2022-11-05T13:13:46.242Z,99536.69
2022-11-05T13:18:51.999Z,99529.03
2022-11-05T13:24:01.058Z,99517.31
2022-11-05T13:29:06.804Z,99532.38
2022-11-05T13:34:11.982Z,99538.72
2022-11-05T13:39:19.740Z,99526.16
2022-11-05T13:44:54.662Z,99525.34
2022-11-05T13:50:14.974Z,99511.31
2022-11-05T13:55:29.463Z,99507.66
2022-11-05T14:00:34.000Z,99516.66
2022-11-05T14:05:38.208Z,99501.00
2022-11-05T14:10:44.203Z,99498.69
2022-11-05T14:16:04.152Z,99507.91
2022-11-05T14:21:12.732Z,99501.09
2022-11-05T14:26:19.495Z,99493.91
2022-11-05T14:32:02.495Z,99494.28
2022-11-05T14:37:22.135Z,99495.47
2022-11-05T14:42:28.682Z,99488.47
2022-11-05T14:47:33.992Z,99484.34
2022-11-05T14:52:37.017Z,99473.81
2022-11-05T14:58:04.223Z,99466.97
2022-11-05T15:03:47.083Z,99467.81
2022-11-05T15:08:57.222Z,99479.09
2022-11-05T15:14:05.793Z,99488.28
2022-11-05T15:19:17.940Z,99489.50
2022-11-05T15:24:21.095Z,99488.63
2022-11-05T15:29:27.643Z,99493.38
2022-11-05T15:34:31.994Z,99491.41
2022-11-05T15:39:40.493Z,99491.41
2022-11-05T15:44:45.684Z,99488.06
2022-11-05T15:49:51.674Z,99492.97
2022-11-05T15:55:19.361Z,99486.34
2022-11-05T16:00:25.800Z,99488.38
2022-11-05T16:05:30.329Z,99495.91
2022-11-05T16:10:37.984Z,99505.06
2022-11-05T16:15:54.268Z,99505.94
2022-11-05T16:21:03.152Z,99502.25
2022-11-05T16:26:06.026Z,99502.59
2022-11-05T16:31:10.089Z,99495.25
2022-11-05T16:36:13.290Z,99488.91
2022-11-05T16:41:16.940Z,99500.59
2022-11-05T16:46:21.621Z,99497.25
2022-11-05T16:51:27.420Z,99505.28
2022-11-05T16:56:30.683Z,99507.28
2022-11-05T17:01:35.574Z,99499.28
2022-11-05T17:06:38.324Z,99495.94
2022-11-05T17:11:41.154Z,99508.13
2022-11-05T17:16:45.245Z,99507.28
2022-11-05T17:21:48.453Z,99505.44
2022-11-05T17:26:51.123Z,99513.66
2022-11-05T17:31:55.251Z,99511.31
2022-11-05T17:36:58.034Z,99516.50
2022-11-05T17:42:00.697Z,99511.53
2022-11-05T17:47:04.871Z,99513.81
2022-11-05T17:52:07.604Z,99514.00
2022-11-05T17:57:10.405Z,99513.16
2022-11-05T18:02:14.683Z,99507.72
2022-11-05T18:07:17.748Z,99516.03
2022-11-05T18:12:20.484Z,99507.47
2022-11-05T18:17:24.594Z,99520.53
2022-11-05T18:22:27.493Z,99517.19
2022-11-05T18:27:30.267Z,99523.31
2022-11-05T18:32:34.445Z,99528.06
2022-11-05T18:37:39.249Z,99526.06
2022-11-05T18:42:42.493Z,99521.16
2022-11-05T18:47:46.543Z,99522.63
2022-11-05T18:52:49.262Z,99512.84
2022-11-05T18:57:51.966Z,99512.56
2022-11-05T19:02:56.221Z,99509.56
2022-11-05T19:07:59.068Z,99506.47
2022-11-05T19:13:01.731Z,99506.31
2022-11-05T19:18:05.963Z,99510.81
2022-11-05T19:23:08.829Z,99511.47
2022-11-05T19:28:11.768Z,99516.41
2022-11-05T19:33:16.090Z,99518.53
2022-11-05T19:38:18.787Z,99514.81
2022-11-05T19:43:21.614Z,99519.56
2022-11-05T19:48:27.519Z,99518.78
2022-11-05T19:53:30.266Z,99522.31
2022-11-05T19:58:32.986Z,99528.72
2022-11-05T20:03:37.672Z,99519.44
2022-11-05T20:08:59.687Z,99519.22
2022-11-05T20:14:04.708Z,99507.84
2022-11-05T20:19:11.961Z,99506.41
2022-11-05T20:24:20.546Z,99515.28
2022-11-05T20:29:33.856Z,99525.00
2022-11-05T20:34:39.428Z,99509.91
2022-11-05T20:39:42.331Z,99523.75
2022-11-05T20:44:44.981Z,99520.25
2022-11-05T20:49:49.030Z,99522.53
2022-11-05T20:54:51.692Z,99512.59
2022-11-05T20:59:54.381Z,99515.31
2022-11-05T21:04:58.478Z,99509.91
2022-11-05T21:10:01.785Z,99509.06
2022-11-05T21:15:05.634Z,99512.16
2022-11-05T21:20:10.598Z,99526.41
2022-11-05T21:25:14.112Z,99534.25
2022-11-05T21:30:16.900Z,99542.22
2022-11-05T21:35:21.208Z,99539.72
2022-11-05T21:40:23.977Z,99532.22
2022-11-05T21:45:26.703Z,99527.03
2022-11-05T21:50:44.628Z,99528.03
2022-11-05T21:56:04.774Z,99504.44
2022-11-05T22:01:07.456Z,99489.94
2022-11-05T22:06:11.638Z,99482.72
2022-11-05T22:11:14.346Z,99475.88
2022-11-05T22:16:17.009Z,99484.31
2022-11-05T22:21:21.045Z,99475.59
2022-11-05T22:26:24.010Z,99473.06
2022-11-05T22:31:29.457Z,99468.94
2022-11-05T22:36:36.181Z,99470.53
2022-11-05T22:41:39.025Z,99463.28
2022-11-05T22:46:42.055Z,99467.94
2022-11-05T22:51:46.391Z,99460.88
2022-11-05T22:56:50.161Z,99454.69
2022-11-05T23:01:53.057Z,99447.84
2022-11-05T23:07:14.534Z,99442.59
2022-11-05T23:12:22.085Z,99453.47
2022-11-05T23:17:42.702Z,99451.56
2022-11-05T23:23:04.432Z,99435.66
2022-11-05T23:28:09.883Z,99435.41
2022-11-05T23:33:12.833Z,99433.28
2022-11-05T23:38:35.327Z,99429.53
2022-11-05T23:43:55.430Z,99431.97
2022-11-05T23:48:58.157Z,99411.50
2022-11-05T23:54:02.226Z,99420.75
2022-11-05T23:59:05.428Z,99421.13
